Terminal Aerodrome Forecast
Issued by NWS

Current Version | Previous Version | Graphics & Text | Print | Product List | Glossary On
Versions: 1 2 3 4 5 6 7 8 9 10 11 12
000
FTUS41 KILN 281700
TAFLCK
TAF
KLCK 281730Z 2818/2918 05005KT P6SM FEW035
     FM282300 08003KT P6SM SCT250
     FM291300 14004KT P6SM SCT120=

USA.gov is the U.S. government's official web portal to all federal, state and local government web resources and services.